sensor_id;sensor_type;location;lat;lon;timestamp;P1;durP1;ratioP1;P2;durP2;ratioP2
317;SDS011;146;53.448;10.228;2023-02-28T00:01:36;5.77;;;4.50;;
317;SDS011;146;53.448;10.228;2023-02-28T00:04:02;5.17;;;4.47;;
317;SDS011;146;53.448;10.228;2023-02-28T00:06:29;4.57;;;3.40;;
317;SDS011;146;53.448;10.228;2023-02-28T00:08:58;5.67;;;4.83;;
317;SDS011;146;53.448;10.228;2023-02-28T00:11:34;5.53;;;3.77;;
317;SDS011;146;53.448;10.228;2023-02-28T00:14:02;4.50;;;3.83;;
317;SDS011;146;53.448;10.228;2023-02-28T00:16:29;3.53;;;3.23;;
317;SDS011;146;53.448;10.228;2023-02-28T00:19:00;4.37;;;3.60;;
317;SDS011;146;53.448;10.228;2023-02-28T00:21:27;3.77;;;3.47;;
317;SDS011;146;53.448;10.228;2023-02-28T00:23:57;3.67;;;3.30;;
317;SDS011;146;53.448;10.228;2023-02-28T00:26:23;5.10;;;3.57;;
317;SDS011;146;53.448;10.228;2023-02-28T00:28:59;3.70;;;3.40;;
317;SDS011;146;53.448;10.228;2023-02-28T00:31:26;5.30;;;4.07;;
317;SDS011;146;53.448;10.228;2023-02-28T00:33:58;3.63;;;3.33;;
317;SDS011;146;53.448;10.228;2023-02-28T00:36:27;4.43;;;3.83;;
317;SDS011;146;53.448;10.228;2023-02-28T00:38:56;3.50;;;3.30;;
317;SDS011;146;53.448;10.228;2023-02-28T00:41:23;4.00;;;3.70;;
317;SDS011;146;53.448;10.228;2023-02-28T00:43:49;4.67;;;4.03;;
317;SDS011;146;53.448;10.228;2023-02-28T00:46:25;3.50;;;3.20;;
317;SDS011;146;53.448;10.228;2023-02-28T00:48:55;4.13;;;3.73;;
317;SDS011;146;53.448;10.228;2023-02-28T00:51:28;4.87;;;3.73;;
317;SDS011;146;53.448;10.228;2023-02-28T00:53:55;4.60;;;4.13;;
317;SDS011;146;53.448;10.228;2023-02-28T00:56:24;4.50;;;3.83;;
317;SDS011;146;53.448;10.228;2023-02-28T00:58:51;4.63;;;3.80;;
317;SDS011;146;53.448;10.228;2023-02-28T01:01:23;4.25;;;3.80;;
317;SDS011;146;53.448;10.228;2023-02-28T01:03:50;4.93;;;3.77;;
317;SDS011;146;53.448;10.228;2023-02-28T01:06:16;6.53;;;4.90;;
317;SDS011;146;53.448;10.228;2023-02-28T01:08:47;5.13;;;4.60;;
317;SDS011;146;53.448;10.228;2023-02-28T01:11:15;4.63;;;4.23;;
317;SDS011;146;53.448;10.228;2023-02-28T01:13:44;8.32;;;4.50;;
317;SDS011;146;53.448;10.228;2023-02-28T01:16:15;5.03;;;4.53;;
317;SDS011;146;53.448;10.228;2023-02-28T01:18:48;4.95;;;4.38;;
317;SDS011;146;53.448;10.228;2023-02-28T01:21:21;5.63;;;4.85;;
317;SDS011;146;53.448;10.228;2023-02-28T01:23:55;4.80;;;4.40;;
317;SDS011;146;53.448;10.228;2023-02-28T01:26:23;5.10;;;4.60;;
317;SDS011;146;53.448;10.228;2023-02-28T01:28:57;5.17;;;4.43;;
317;SDS011;146;53.448;10.228;2023-02-28T01:31:24;5.55;;;5.05;;
317;SDS011;146;53.448;10.228;2023-02-28T01:33:54;5.13;;;4.70;;
317;SDS011;146;53.448;10.228;2023-02-28T01:36:22;4.32;;;3.92;;
317;SDS011;146;53.448;10.228;2023-02-28T01:39:00;5.55;;;4.13;;
317;SDS011;146;53.448;10.228;2023-02-28T01:41:28;7.43;;;4.23;;
317;SDS011;146;53.448;10.228;2023-02-28T01:43:58;5.95;;;4.65;;
317;SDS011;146;53.448;10.228;2023-02-28T01:46:34;5.35;;;4.28;;
317;SDS011;146;53.448;10.228;2023-02-28T01:49:05;4.53;;;4.13;;
317;SDS011;146;53.448;10.228;2023-02-28T01:51:37;4.22;;;3.67;;
317;SDS011;146;53.448;10.228;2023-02-28T01:54:19;4.40;;;4.00;;
317;SDS011;146;53.448;10.228;2023-02-28T01:56:58;4.70;;;4.40;;
317;SDS011;146;53.448;10.228;2023-02-28T01:59:34;5.90;;;4.75;;
317;SDS011;146;53.448;10.228;2023-02-28T02:02:05;5.20;;;4.70;;
317;SDS011;146;53.448;10.228;2023-02-28T02:04:34;5.00;;;4.55;;
317;SDS011;146;53.448;10.228;2023-02-28T02:07:05;4.70;;;4.30;;
317;SDS011;146;53.448;10.228;2023-02-28T02:09:33;4.60;;;4.20;;
317;SDS011;146;53.448;10.228;2023-02-28T02:12:00;5.70;;;5.07;;
317;SDS011;146;53.448;10.228;2023-02-28T02:14:42;4.90;;;4.50;;
317;SDS011;146;53.448;10.228;2023-02-28T02:17:26;4.35;;;3.95;;
317;SDS011;146;53.448;10.228;2023-02-28T02:23:17;5.85;;;4.30;;
317;SDS011;146;53.448;10.228;2023-02-28T02:32:56;4.85;;;4.15;;
317;SDS011;146;53.448;10.228;2023-02-28T02:35:33;9.30;;;4.55;;
317;SDS011;146;53.448;10.228;2023-02-28T02:38:23;6.57;;;4.70;;
317;SDS011;146;53.448;10.228;2023-02-28T02:41:04;4.93;;;3.90;;
317;SDS011;146;53.448;10.228;2023-02-28T02:43:49;4.15;;;3.85;;
317;SDS011;146;53.448;10.228;2023-02-28T02:46:19;4.05;;;3.65;;
317;SDS011;146;53.448;10.228;2023-02-28T02:48:47;5.13;;;4.15;;
317;SDS011;146;53.448;10.228;2023-02-28T02:51:25;4.65;;;4.20;;
317;SDS011;146;53.448;10.228;2023-02-28T02:53:54;4.35;;;3.92;;
317;SDS011;146;53.448;10.228;2023-02-28T02:56:33;4.70;;;4.30;;
317;SDS011;146;53.448;10.228;2023-02-28T02:59:02;5.38;;;4.75;;
317;SDS011;146;53.448;10.228;2023-02-28T03:01:34;4.80;;;4.25;;
317;SDS011;146;53.448;10.228;2023-02-28T03:04:02;4.00;;;3.60;;
317;SDS011;146;53.448;10.228;2023-02-28T03:06:35;6.10;;;4.25;;
317;SDS011;146;53.448;10.228;2023-02-28T03:09:02;4.47;;;4.07;;
317;SDS011;146;53.448;10.228;2023-02-28T03:11:30;6.70;;;4.80;;
317;SDS011;146;53.448;10.228;2023-02-28T03:14:04;5.28;;;4.10;;
317;SDS011;146;53.448;10.228;2023-02-28T03:16:53;4.40;;;3.97;;
317;SDS011;146;53.448;10.228;2023-02-28T03:19:41;5.70;;;4.72;;
317;SDS011;146;53.448;10.228;2023-02-28T03:22:41;5.35;;;4.32;;
317;SDS011;146;53.448;10.228;2023-02-28T03:25:23;4.95;;;4.47;;
317;SDS011;146;53.448;10.228;2023-02-28T03:28:03;4.30;;;3.90;;
317;SDS011;146;53.448;10.228;2023-02-28T03:30:36;6.22;;;4.97;;
317;SDS011;146;53.448;10.228;2023-02-28T03:33:10;4.53;;;3.92;;
317;SDS011;146;53.448;10.228;2023-02-28T03:35:50;5.53;;;4.90;;
317;SDS011;146;53.448;10.228;2023-02-28T03:38:33;5.85;;;5.35;;
317;SDS011;146;53.448;10.228;2023-02-28T03:41:05;5.28;;;4.47;;
317;SDS011;146;53.448;10.228;2023-02-28T03:43:41;6.80;;;5.50;;
317;SDS011;146;53.448;10.228;2023-02-28T03:46:16;4.82;;;4.40;;
317;SDS011;146;53.448;10.228;2023-02-28T03:48:51;4.30;;;3.90;;
317;SDS011;146;53.448;10.228;2023-02-28T03:51:22;4.78;;;4.25;;
317;SDS011;146;53.448;10.228;2023-02-28T03:53:56;5.25;;;4.45;;
317;SDS011;146;53.448;10.228;2023-02-28T03:56:32;4.55;;;4.15;;
317;SDS011;146;53.448;10.228;2023-02-28T03:59:13;4.90;;;4.38;;
317;SDS011;146;53.448;10.228;2023-02-28T04:01:44;5.18;;;4.68;;
317;SDS011;146;53.448;10.228;2023-02-28T04:04:13;5.05;;;4.55;;
317;SDS011;146;53.448;10.228;2023-02-28T04:06:42;4.82;;;4.43;;
317;SDS011;146;53.448;10.228;2023-02-28T04:09:17;4.85;;;4.45;;
317;SDS011;146;53.448;10.228;2023-02-28T04:11:45;4.43;;;4.03;;
317;SDS011;146;53.448;10.228;2023-02-28T04:14:19;5.38;;;4.88;;
317;SDS011;146;53.448;10.228;2023-02-28T04:16:57;4.95;;;4.47;;
317;SDS011;146;53.448;10.228;2023-02-28T04:19:24;7.03;;;5.50;;
317;SDS011;146;53.448;10.228;2023-02-28T04:21:56;6.28;;;5.15;;
317;SDS011;146;53.448;10.228;2023-02-28T04:24:33;4.43;;;3.72;;
317;SDS011;146;53.448;10.228;2023-02-28T04:27:00;5.05;;;4.57;;
317;SDS011;146;53.448;10.228;2023-02-28T04:29:27;5.18;;;4.53;;
317;SDS011;146;53.448;10.228;2023-02-28T04:31:56;5.93;;;4.55;;
317;SDS011;146;53.448;10.228;2023-02-28T04:34:26;4.60;;;4.20;;
317;SDS011;146;53.448;10.228;2023-02-28T04:36:57;5.15;;;4.65;;
317;SDS011;146;53.448;10.228;2023-02-28T04:39:25;4.43;;;4.05;;
317;SDS011;146;53.448;10.228;2023-02-28T04:42:02;5.15;;;4.75;;
317;SDS011;146;53.448;10.228;2023-02-28T04:44:30;4.95;;;4.45;;
317;SDS011;146;53.448;10.228;2023-02-28T04:46:56;5.15;;;4.65;;
317;SDS011;146;53.448;10.228;2023-02-28T04:49:29;5.75;;;4.05;;
317;SDS011;146;53.448;10.228;2023-02-28T04:51:59;7.75;;;5.03;;
317;SDS011;146;53.448;10.228;2023-02-28T04:54:26;5.43;;;4.93;;
317;SDS011;146;53.448;10.228;2023-02-28T04:56:54;6.47;;;4.65;;
317;SDS011;146;53.448;10.228;2023-02-28T04:59:31;9.32;;;4.80;;
317;SDS011;146;53.448;10.228;2023-02-28T05:01:58;6.25;;;4.97;;
317;SDS011;146;53.448;10.228;2023-02-28T05:04:25;5.55;;;4.95;;
317;SDS011;146;53.448;10.228;2023-02-28T05:06:52;6.03;;;4.90;;
317;SDS011;146;53.448;10.228;2023-02-28T05:09:20;6.00;;;4.47;;
317;SDS011;146;53.448;10.228;2023-02-28T05:11:53;6.43;;;4.93;;
317;SDS011;146;53.448;10.228;2023-02-28T05:14:24;5.95;;;4.95;;
317;SDS011;146;53.448;10.228;2023-02-28T05:17:03;6.25;;;5.63;;
317;SDS011;146;53.448;10.228;2023-02-28T05:19:33;4.93;;;4.40;;
317;SDS011;146;53.448;10.228;2023-02-28T05:22:03;6.00;;;5.25;;
317;SDS011;146;53.448;10.228;2023-02-28T05:24:29;6.85;;;5.20;;
317;SDS011;146;53.448;10.228;2023-02-28T05:27:01;5.90;;;5.40;;
317;SDS011;146;53.448;10.228;2023-02-28T05:29:28;6.13;;;4.50;;
317;SDS011;146;53.448;10.228;2023-02-28T05:31:55;6.55;;;5.15;;
317;SDS011;146;53.448;10.228;2023-02-28T05:34:24;5.07;;;4.45;;
317;SDS011;146;53.448;10.228;2023-02-28T05:36:54;7.65;;;5.88;;
317;SDS011;146;53.448;10.228;2023-02-28T05:39:21;4.50;;;4.10;;
317;SDS011;146;53.448;10.228;2023-02-28T05:41:50;6.20;;;5.00;;
317;SDS011;146;53.448;10.228;2023-02-28T05:44:21;5.75;;;4.90;;
317;SDS011;146;53.448;10.228;2023-02-28T05:46:48;5.22;;;4.72;;
317;SDS011;146;53.448;10.228;2023-02-28T05:49:17;5.00;;;4.60;;
317;SDS011;146;53.448;10.228;2023-02-28T05:51:44;6.75;;;5.05;;
317;SDS011;146;53.448;10.228;2023-02-28T05:54:14;7.50;;;5.13;;
317;SDS011;146;53.448;10.228;2023-02-28T05:56:47;6.25;;;5.65;;
317;SDS011;146;53.448;10.228;2023-02-28T05:59:16;5.38;;;4.78;;
317;SDS011;146;53.448;10.228;2023-02-28T06:01:45;5.03;;;4.63;;
317;SDS011;146;53.448;10.228;2023-02-28T06:04:20;4.47;;;4.07;;
317;SDS011;146;53.448;10.228;2023-02-28T06:06:47;5.32;;;4.82;;
317;SDS011;146;53.448;10.228;2023-02-28T06:09:15;6.35;;;4.95;;
317;SDS011;146;53.448;10.228;2023-02-28T06:11:42;7.38;;;6.03;;
317;SDS011;146;53.448;10.228;2023-02-28T06:14:14;5.40;;;4.95;;
317;SDS011;146;53.448;10.228;2023-02-28T06:16:46;5.68;;;5.07;;
317;SDS011;146;53.448;10.228;2023-02-28T06:19:19;6.47;;;5.38;;
317;SDS011;146;53.448;10.228;2023-02-28T06:21:51;5.45;;;4.95;;
317;SDS011;146;53.448;10.228;2023-02-28T06:24:18;6.28;;;5.05;;
317;SDS011;146;53.448;10.228;2023-02-28T06:26:57;4.78;;;4.38;;
317;SDS011;146;53.448;10.228;2023-02-28T06:29:30;6.13;;;5.10;;
317;SDS011;146;53.448;10.228;2023-02-28T06:31:58;5.22;;;4.80;;
317;SDS011;146;53.448;10.228;2023-02-28T06:34:30;6.18;;;5.57;;
317;SDS011;146;53.448;10.228;2023-02-28T06:36:58;6.40;;;5.20;;
317;SDS011;146;53.448;10.228;2023-02-28T06:39:30;5.47;;;4.18;;
317;SDS011;146;53.448;10.228;2023-02-28T06:41:57;5.07;;;4.57;;
317;SDS011;146;53.448;10.228;2023-02-28T06:44:27;4.70;;;4.30;;
317;SDS011;146;53.448;10.228;2023-02-28T06:47:01;5.32;;;4.35;;
317;SDS011;146;53.448;10.228;2023-02-28T06:49:29;6.35;;;4.68;;
317;SDS011;146;53.448;10.228;2023-02-28T06:51:59;5.22;;;4.22;;
317;SDS011;146;53.448;10.228;2023-02-28T06:54:26;6.00;;;4.50;;
317;SDS011;146;53.448;10.228;2023-02-28T06:56:57;4.88;;;4.13;;
317;SDS011;146;53.448;10.228;2023-02-28T06:59:24;4.72;;;4.22;;
317;SDS011;146;53.448;10.228;2023-02-28T07:01:50;6.28;;;4.40;;
317;SDS011;146;53.448;10.228;2023-02-28T07:04:18;6.47;;;4.80;;
317;SDS011;146;53.448;10.228;2023-02-28T07:06:45;7.30;;;5.95;;
317;SDS011;146;53.448;10.228;2023-02-28T07:09:21;5.13;;;4.68;;
317;SDS011;146;53.448;10.228;2023-02-28T07:11:51;13.85;;;7.25;;
317;SDS011;146;53.448;10.228;2023-02-28T07:14:27;7.03;;;6.30;;
317;SDS011;146;53.448;10.228;2023-02-28T07:16:54;6.78;;;5.90;;
317;SDS011;146;53.448;10.228;2023-02-28T07:19:25;7.15;;;6.47;;
317;SDS011;146;53.448;10.228;2023-02-28T07:21:51;7.78;;;7.07;;
317;SDS011;146;53.448;10.228;2023-02-28T07:24:18;9.75;;;6.65;;
317;SDS011;146;53.448;10.228;2023-02-28T07:26:45;9.68;;;8.93;;
317;SDS011;146;53.448;10.228;2023-02-28T07:29:12;7.30;;;6.60;;
317;SDS011;146;53.448;10.228;2023-02-28T07:31:44;10.82;;;9.13;;
317;SDS011;146;53.448;10.228;2023-02-28T07:34:11;7.97;;;7.15;;
317;SDS011;146;53.448;10.228;2023-02-28T07:36:39;7.88;;;7.22;;
317;SDS011;146;53.448;10.228;2023-02-28T07:39:11;8.18;;;7.05;;
317;SDS011;146;53.448;10.228;2023-02-28T07:41:38;8.50;;;7.30;;
317;SDS011;146;53.448;10.228;2023-02-28T07:44:08;8.05;;;7.18;;
317;SDS011;146;53.448;10.228;2023-02-28T07:46:38;9.38;;;6.57;;
317;SDS011;146;53.448;10.228;2023-02-28T07:49:05;11.18;;;7.35;;
317;SDS011;146;53.448;10.228;2023-02-28T07:51:32;7.63;;;6.78;;
317;SDS011;146;53.448;10.228;2023-02-28T07:54:00;7.03;;;6.32;;
317;SDS011;146;53.448;10.228;2023-02-28T07:56:27;9.10;;;8.15;;
317;SDS011;146;53.448;10.228;2023-02-28T07:59:03;8.90;;;8.00;;
317;SDS011;146;53.448;10.228;2023-02-28T08:01:30;8.55;;;7.65;;
317;SDS011;146;53.448;10.228;2023-02-28T08:03:56;7.93;;;6.88;;
317;SDS011;146;53.448;10.228;2023-02-28T08:06:26;8.30;;;7.60;;
317;SDS011;146;53.448;10.228;2023-02-28T08:08:53;9.07;;;7.32;;
317;SDS011;146;53.448;10.228;2023-02-28T08:11:22;7.82;;;7.13;;
317;SDS011;146;53.448;10.228;2023-02-28T08:13:49;8.13;;;7.43;;
317;SDS011;146;53.448;10.228;2023-02-28T08:16:18;7.40;;;6.80;;
317;SDS011;146;53.448;10.228;2023-02-28T08:18:47;8.02;;;7.05;;
317;SDS011;146;53.448;10.228;2023-02-28T08:21:21;9.60;;;8.00;;
317;SDS011;146;53.448;10.228;2023-02-28T08:23:51;10.10;;;7.63;;
317;SDS011;146;53.448;10.228;2023-02-28T08:26:18;9.32;;;8.10;;
317;SDS011;146;53.448;10.228;2023-02-28T08:28:47;7.30;;;6.60;;
317;SDS011;146;53.448;10.228;2023-02-28T08:31:14;7.78;;;6.65;;
317;SDS011;146;53.448;10.228;2023-02-28T08:33:47;9.07;;;7.60;;
317;SDS011;146;53.448;10.228;2023-02-28T08:36:16;7.33;;;6.50;;
317;SDS011;146;53.448;10.228;2023-02-28T08:38:43;7.67;;;6.53;;
317;SDS011;146;53.448;10.228;2023-02-28T08:41:13;8.20;;;7.50;;
317;SDS011;146;53.448;10.228;2023-02-28T08:43:40;7.60;;;7.00;;
317;SDS011;146;53.448;10.228;2023-02-28T08:46:10;8.00;;;7.30;;
317;SDS011;146;53.448;10.228;2023-02-28T08:48:38;8.00;;;7.30;;
317;SDS011;146;53.448;10.228;2023-02-28T08:51:09;8.83;;;7.93;;
317;SDS011;146;53.448;10.228;2023-02-28T08:53:46;9.10;;;7.90;;
317;SDS011;146;53.448;10.228;2023-02-28T08:56:14;8.40;;;7.60;;
317;SDS011;146;53.448;10.228;2023-02-28T08:58:44;7.83;;;7.23;;
317;SDS011;146;53.448;10.228;2023-02-28T09:01:18;7.57;;;6.97;;
317;SDS011;146;53.448;10.228;2023-02-28T09:03:47;8.60;;;7.70;;
317;SDS011;146;53.448;10.228;2023-02-28T09:06:15;8.90;;;8.00;;
317;SDS011;146;53.448;10.228;2023-02-28T09:08:43;12.70;;;7.17;;
317;SDS011;146;53.448;10.228;2023-02-28T09:11:16;8.20;;;7.43;;
317;SDS011;146;53.448;10.228;2023-02-28T09:13:44;7.93;;;7.13;;
317;SDS011;146;53.448;10.228;2023-02-28T09:16:18;11.23;;;8.10;;
317;SDS011;146;53.448;10.228;2023-02-28T09:18:45;7.90;;;7.17;;
317;SDS011;146;53.448;10.228;2023-02-28T09:21:14;7.63;;;6.40;;
317;SDS011;146;53.448;10.228;2023-02-28T09:23:45;7.30;;;6.60;;
317;SDS011;146;53.448;10.228;2023-02-28T09:26:14;6.97;;;6.23;;
317;SDS011;146;53.448;10.228;2023-02-28T09:28:42;6.27;;;5.40;;
317;SDS011;146;53.448;10.228;2023-02-28T09:31:16;7.20;;;4.87;;
317;SDS011;146;53.448;10.228;2023-02-28T09:33:46;5.00;;;4.70;;
317;SDS011;146;53.448;10.228;2023-02-28T09:36:13;7.03;;;6.37;;
317;SDS011;146;53.448;10.228;2023-02-28T09:38:40;5.93;;;5.37;;
317;SDS011;146;53.448;10.228;2023-02-28T09:41:10;7.23;;;4.10;;
317;SDS011;146;53.448;10.228;2023-02-28T09:43:40;3.80;;;3.33;;
317;SDS011;146;53.448;10.228;2023-02-28T09:46:26;3.90;;;3.60;;
317;SDS011;146;53.448;10.228;2023-02-28T09:48:56;3.27;;;2.97;;
317;SDS011;146;53.448;10.228;2023-02-28T09:51:30;3.70;;;3.40;;
317;SDS011;146;53.448;10.228;2023-02-28T09:54:06;3.33;;;2.93;;
317;SDS011;146;53.448;10.228;2023-02-28T09:56:48;1.87;;;1.77;;
317;SDS011;146;53.448;10.228;2023-02-28T09:59:32;2.10;;;2.00;;
317;SDS011;146;53.448;10.228;2023-02-28T10:02:21;6.47;;;6.03;;
317;SDS011;146;53.448;10.228;2023-02-28T10:05:05;5.20;;;4.73;;
317;SDS011;146;53.448;10.228;2023-02-28T10:10:34;2.10;;;1.97;;
317;SDS011;146;53.448;10.228;2023-02-28T10:13:06;1.73;;;1.37;;
317;SDS011;146;53.448;10.228;2023-02-28T10:15:44;2.50;;;1.83;;
317;SDS011;146;53.448;10.228;2023-02-28T10:18:23;5.43;;;2.43;;
317;SDS011;146;53.448;10.228;2023-02-28T10:20:53;1.70;;;1.60;;
317;SDS011;146;53.448;10.228;2023-02-28T10:23:28;2.60;;;1.43;;
317;SDS011;146;53.448;10.228;2023-02-28T10:26:03;1.50;;;1.40;;
317;SDS011;146;53.448;10.228;2023-02-28T10:28:43;1.77;;;1.67;;
317;SDS011;146;53.448;10.228;2023-02-28T10:31:11;1.33;;;1.23;;
317;SDS011;146;53.448;10.228;2023-02-28T10:33:43;1.50;;;1.40;;
317;SDS011;146;53.448;10.228;2023-02-28T10:36:12;2.13;;;1.20;;
317;SDS011;146;53.448;10.228;2023-02-28T10:38:45;0.70;;;0.60;;
317;SDS011;146;53.448;10.228;2023-02-28T10:41:16;1.17;;;1.10;;
317;SDS011;146;53.448;10.228;2023-02-28T10:44:17;0.60;;;0.50;;
317;SDS011;146;53.448;10.228;2023-02-28T10:46:46;0.60;;;0.60;;
317;SDS011;146;53.448;10.228;2023-02-28T10:49:19;2.00;;;0.80;;
317;SDS011;146;53.448;10.228;2023-02-28T10:52:03;1.70;;;1.50;;
317;SDS011;146;53.448;10.228;2023-02-28T10:54:36;1.03;;;0.90;;
317;SDS011;146;53.448;10.228;2023-02-28T10:57:08;3.67;;;1.27;;
317;SDS011;146;53.448;10.228;2023-02-28T10:59:40;1.33;;;1.23;;
317;SDS011;146;53.448;10.228;2023-02-28T11:08:05;1.83;;;1.73;;
317;SDS011;146;53.448;10.228;2023-02-28T11:10:46;2.00;;;1.80;;
317;SDS011;146;53.448;10.228;2023-02-28T11:13:19;1.80;;;1.60;;
317;SDS011;146;53.448;10.228;2023-02-28T11:16:24;1.97;;;1.87;;
317;SDS011;146;53.448;10.228;2023-02-28T11:18:42;1.77;;;1.67;;
317;SDS011;146;53.448;10.228;2023-02-28T11:21:20;4.17;;;1.80;;
317;SDS011;146;53.448;10.228;2023-02-28T11:23:53;1.47;;;1.37;;
317;SDS011;146;53.448;10.228;2023-02-28T11:26:47;1.63;;;1.53;;
317;SDS011;146;53.448;10.228;2023-02-28T11:29:20;1.67;;;1.57;;
317;SDS011;146;53.448;10.228;2023-02-28T11:32:05;1.50;;;1.40;;
317;SDS011;146;53.448;10.228;2023-02-28T11:34:41;1.53;;;1.40;;
317;SDS011;146;53.448;10.228;2023-02-28T11:37:17;2.43;;;1.73;;
317;SDS011;146;53.448;10.228;2023-02-28T11:39:51;2.80;;;2.00;;
317;SDS011;146;53.448;10.228;2023-02-28T11:45:34;1.70;;;1.60;;
317;SDS011;146;53.448;10.228;2023-02-28T11:48:20;1.80;;;1.70;;
317;SDS011;146;53.448;10.228;2023-02-28T11:50:54;2.17;;;1.73;;
317;SDS011;146;53.448;10.228;2023-02-28T11:53:44;2.10;;;1.87;;
317;SDS011;146;53.448;10.228;2023-02-28T11:56:43;1.47;;;1.37;;
317;SDS011;146;53.448;10.228;2023-02-28T11:59:28;2.30;;;1.93;;
317;SDS011;146;53.448;10.228;2023-02-28T12:02:20;1.70;;;1.60;;
317;SDS011;146;53.448;10.228;2023-02-28T12:04:56;3.17;;;1.80;;
317;SDS011;146;53.448;10.228;2023-02-28T12:07:40;1.50;;;1.40;;
317;SDS011;146;53.448;10.228;2023-02-28T12:10:18;1.50;;;1.40;;
317;SDS011;146;53.448;10.228;2023-02-28T12:12:51;2.10;;;1.50;;
317;SDS011;146;53.448;10.228;2023-02-28T12:15:42;1.30;;;1.20;;
317;SDS011;146;53.448;10.228;2023-02-28T12:18:39;1.67;;;1.60;;
317;SDS011;146;53.448;10.228;2023-02-28T12:21:18;1.50;;;1.40;;
317;SDS011;146;53.448;10.228;2023-02-28T12:24:01;1.83;;;1.60;;
317;SDS011;146;53.448;10.228;2023-02-28T12:26:42;1.60;;;1.50;;
317;SDS011;146;53.448;10.228;2023-02-28T12:29:13;1.80;;;1.70;;
317;SDS011;146;53.448;10.228;2023-02-28T12:31:45;2.70;;;2.10;;
317;SDS011;146;53.448;10.228;2023-02-28T12:34:16;2.47;;;2.27;;
317;SDS011;146;53.448;10.228;2023-02-28T12:36:52;1.50;;;1.40;;
317;SDS011;146;53.448;10.228;2023-02-28T12:39:30;1.70;;;1.53;;
317;SDS011;146;53.448;10.228;2023-02-28T12:42:07;1.80;;;1.70;;
317;SDS011;146;53.448;10.228;2023-02-28T12:44:40;3.53;;;1.90;;
317;SDS011;146;53.448;10.228;2023-02-28T12:47:20;1.83;;;1.23;;
317;SDS011;146;53.448;10.228;2023-02-28T12:49:48;2.30;;;1.90;;
317;SDS011;146;53.448;10.228;2023-02-28T12:52:19;4.00;;;2.00;;
317;SDS011;146;53.448;10.228;2023-02-28T12:54:52;1.63;;;1.53;;
317;SDS011;146;53.448;10.228;2023-02-28T12:57:27;1.30;;;1.20;;
317;SDS011;146;53.448;10.228;2023-02-28T13:00:00;1.50;;;1.40;;
317;SDS011;146;53.448;10.228;2023-02-28T13:02:44;1.90;;;1.67;;
317;SDS011;146;53.448;10.228;2023-02-28T13:11:31;1.97;;;1.80;;
317;SDS011;146;53.448;10.228;2023-02-28T13:14:04;1.50;;;1.40;;
317;SDS011;146;53.448;10.228;2023-02-28T13:19:26;1.70;;;1.60;;
317;SDS011;146;53.448;10.228;2023-02-28T13:21:56;1.57;;;1.40;;
317;SDS011;146;53.448;10.228;2023-02-28T13:27:35;1.77;;;1.67;;
317;SDS011;146;53.448;10.228;2023-02-28T13:36:09;2.00;;;1.50;;
317;SDS011;146;53.448;10.228;2023-02-28T13:38:54;1.90;;;1.80;;
317;SDS011;146;53.448;10.228;2023-02-28T13:44:12;1.53;;;1.40;;
317;SDS011;146;53.448;10.228;2023-02-28T13:49:47;2.10;;;1.60;;
317;SDS011;146;53.448;10.228;2023-02-28T13:52:18;4.30;;;1.93;;
317;SDS011;146;53.448;10.228;2023-02-28T13:55:06;2.00;;;1.80;;
317;SDS011;146;53.448;10.228;2023-02-28T13:57:58;1.70;;;1.60;;
317;SDS011;146;53.448;10.228;2023-02-28T14:00:46;2.77;;;1.40;;
317;SDS011;146;53.448;10.228;2023-02-28T14:03:40;1.70;;;1.50;;
317;SDS011;146;53.448;10.228;2023-02-28T14:06:36;1.83;;;1.73;;
317;SDS011;146;53.448;10.228;2023-02-28T14:09:05;1.70;;;1.60;;
317;SDS011;146;53.448;10.228;2023-02-28T14:11:49;2.60;;;2.20;;
317;SDS011;146;53.448;10.228;2023-02-28T14:17:24;1.83;;;1.57;;
317;SDS011;146;53.448;10.228;2023-02-28T14:19:55;4.20;;;1.50;;
317;SDS011;146;53.448;10.228;2023-02-28T14:25:30;5.80;;;1.70;;
317;SDS011;146;53.448;10.228;2023-02-28T14:28:04;2.93;;;1.70;;
317;SDS011;146;53.448;10.228;2023-02-28T14:30:45;2.53;;;2.20;;
317;SDS011;146;53.448;10.228;2023-02-28T14:36:40;1.87;;;1.77;;
317;SDS011;146;53.448;10.228;2023-02-28T14:39:14;5.30;;;1.87;;
317;SDS011;146;53.448;10.228;2023-02-28T14:41:45;1.50;;;1.40;;
317;SDS011;146;53.448;10.228;2023-02-28T14:44:16;1.73;;;1.53;;
317;SDS011;146;53.448;10.228;2023-02-28T14:46:47;1.70;;;1.60;;
317;SDS011;146;53.448;10.228;2023-02-28T14:49:35;1.97;;;1.87;;
317;SDS011;146;53.448;10.228;2023-02-28T14:52:09;2.00;;;1.60;;
317;SDS011;146;53.448;10.228;2023-02-28T14:54:47;1.60;;;1.50;;
317;SDS011;146;53.448;10.228;2023-02-28T14:57:33;3.37;;;1.93;;
317;SDS011;146;53.448;10.228;2023-02-28T15:00:01;1.97;;;1.87;;
317;SDS011;146;53.448;10.228;2023-02-28T15:02:44;2.20;;;1.80;;
317;SDS011;146;53.448;10.228;2023-02-28T15:08:09;2.17;;;1.50;;
317;SDS011;146;53.448;10.228;2023-02-28T15:10:50;2.43;;;2.23;;
317;SDS011;146;53.448;10.228;2023-02-28T15:13:18;2.00;;;1.90;;
317;SDS011;146;53.448;10.228;2023-02-28T15:15:47;2.07;;;1.90;;
317;SDS011;146;53.448;10.228;2023-02-28T15:18:23;3.33;;;2.83;;
317;SDS011;146;53.448;10.228;2023-02-28T15:20:54;2.20;;;1.97;;
317;SDS011;146;53.448;10.228;2023-02-28T15:23:23;2.20;;;2.00;;
317;SDS011;146;53.448;10.228;2023-02-28T15:25:52;2.20;;;2.00;;
317;SDS011;146;53.448;10.228;2023-02-28T15:28:20;2.47;;;2.27;;
317;SDS011;146;53.448;10.228;2023-02-28T15:30:53;2.20;;;2.00;;
317;SDS011;146;53.448;10.228;2023-02-28T15:33:22;3.03;;;2.50;;
317;SDS011;146;53.448;10.228;2023-02-28T15:36:10;2.40;;;2.20;;
317;SDS011;146;53.448;10.228;2023-02-28T15:38:40;5.23;;;2.80;;
317;SDS011;146;53.448;10.228;2023-02-28T15:41:21;3.77;;;2.80;;
317;SDS011;146;53.448;10.228;2023-02-28T15:44:15;3.37;;;2.30;;
317;SDS011;146;53.448;10.228;2023-02-28T15:46:53;2.27;;;2.07;;
317;SDS011;146;53.448;10.228;2023-02-28T15:49:33;2.40;;;2.20;;
317;SDS011;146;53.448;10.228;2023-02-28T15:52:13;2.90;;;1.80;;
317;SDS011;146;53.448;10.228;2023-02-28T15:54:45;4.23;;;2.33;;
317;SDS011;146;53.448;10.228;2023-02-28T15:57:15;2.90;;;2.43;;
317;SDS011;146;53.448;10.228;2023-02-28T15:59:48;2.20;;;2.00;;
317;SDS011;146;53.448;10.228;2023-02-28T16:02:18;2.03;;;1.93;;
317;SDS011;146;53.448;10.228;2023-02-28T16:05:00;2.17;;;1.97;;
317;SDS011;146;53.448;10.228;2023-02-28T16:07:41;2.30;;;2.10;;
317;SDS011;146;53.448;10.228;2023-02-28T16:10:10;2.50;;;2.17;;
317;SDS011;146;53.448;10.228;2023-02-28T16:12:40;2.80;;;2.10;;
317;SDS011;146;53.448;10.228;2023-02-28T16:15:08;3.90;;;1.80;;
317;SDS011;146;53.448;10.228;2023-02-28T16:17:45;2.33;;;1.90;;
317;SDS011;146;53.448;10.228;2023-02-28T16:20:13;1.83;;;1.60;;
317;SDS011;146;53.448;10.228;2023-02-28T16:22:41;2.43;;;2.23;;
317;SDS011;146;53.448;10.228;2023-02-28T16:25:10;1.90;;;1.80;;
317;SDS011;146;53.448;10.228;2023-02-28T16:27:38;1.80;;;1.60;;
317;SDS011;146;53.448;10.228;2023-02-28T16:30:07;7.77;;;2.30;;
317;SDS011;146;53.448;10.228;2023-02-28T16:32:39;1.67;;;1.57;;
317;SDS011;146;53.448;10.228;2023-02-28T16:35:09;2.20;;;2.00;;
317;SDS011;146;53.448;10.228;2023-02-28T16:37:46;2.80;;;2.10;;
317;SDS011;146;53.448;10.228;2023-02-28T16:40:16;2.40;;;2.20;;
317;SDS011;146;53.448;10.228;2023-02-28T16:42:49;3.00;;;2.70;;
317;SDS011;146;53.448;10.228;2023-02-28T16:45:20;3.30;;;2.40;;
317;SDS011;146;53.448;10.228;2023-02-28T16:47:51;2.83;;;2.60;;
317;SDS011;146;53.448;10.228;2023-02-28T16:50:18;3.57;;;2.27;;
317;SDS011;146;53.448;10.228;2023-02-28T16:52:47;2.50;;;2.20;;
317;SDS011;146;53.448;10.228;2023-02-28T16:55:14;2.50;;;2.30;;
317;SDS011;146;53.448;10.228;2023-02-28T16:57:44;2.40;;;2.30;;
317;SDS011;146;53.448;10.228;2023-02-28T17:00:19;2.20;;;2.10;;
317;SDS011;146;53.448;10.228;2023-02-28T17:02:49;4.33;;;2.27;;
317;SDS011;146;53.448;10.228;2023-02-28T17:05:24;1.77;;;1.67;;